sensor_id;sensor_type;location;lat;lon;timestamp;P1;durP1;ratioP1;P2;durP2;ratioP2
68225;SDS011;55045;49.410;11.030;2023-05-06T00:01:18;12.55;;;8.90;;
68225;SDS011;55045;49.410;11.030;2023-05-06T00:04:54;17.88;;;12.00;;
68225;SDS011;55045;49.410;11.030;2023-05-06T00:08:10;14.77;;;10.23;;
68225;SDS011;55045;49.410;11.030;2023-05-06T00:15:19;16.05;;;13.77;;
68225;SDS011;55045;49.410;11.030;2023-05-06T00:18:40;18.48;;;14.50;;
68225;SDS011;55045;49.410;11.030;2023-05-06T00:22:02;19.63;;;15.43;;
68225;SDS011;55045;49.410;11.030;2023-05-06T00:28:46;20.65;;;16.58;;
68225;SDS011;55045;49.410;11.030;2023-05-06T00:32:05;19.73;;;16.25;;
68225;SDS011;55045;49.410;11.030;2023-05-06T00:39:23;22.67;;;16.67;;
68225;SDS011;55045;49.410;11.030;2023-05-06T00:42:48;25.92;;;18.40;;
68225;SDS011;55045;49.410;11.030;2023-05-06T00:45:59;25.52;;;19.52;;
68225;SDS011;55045;49.410;11.030;2023-05-06T00:49:11;26.63;;;18.83;;
68225;SDS011;55045;49.410;11.030;2023-05-06T00:52:22;22.90;;;17.23;;
68225;SDS011;55045;49.410;11.030;2023-05-06T00:59:07;31.30;;;20.10;;
68225;SDS011;55045;49.410;11.030;2023-05-06T01:02:22;29.17;;;20.35;;
68225;SDS011;55045;49.410;11.030;2023-05-06T01:09:40;30.02;;;19.95;;
68225;SDS011;55045;49.410;11.030;2023-05-06T01:17:09;25.83;;;18.25;;
68225;SDS011;55045;49.410;11.030;2023-05-06T01:20:20;31.23;;;21.13;;
68225;SDS011;55045;49.410;11.030;2023-05-06T01:37:05;28.48;;;20.88;;
68225;SDS011;55045;49.410;11.030;2023-05-06T01:40:28;27.40;;;20.55;;
68225;SDS011;55045;49.410;11.030;2023-05-06T02:00:22;39.87;;;24.13;;
68225;SDS011;55045;49.410;11.030;2023-05-06T02:03:40;37.53;;;23.30;;
68225;SDS011;55045;49.410;11.030;2023-05-06T02:06:47;28.35;;;20.00;;
68225;SDS011;55045;49.410;11.030;2023-05-06T02:17:16;32.85;;;22.08;;
68225;SDS011;55045;49.410;11.030;2023-05-06T02:24:23;28.00;;;18.33;;
68225;SDS011;55045;49.410;11.030;2023-05-06T02:31:45;40.75;;;26.20;;
68225;SDS011;55045;49.410;11.030;2023-05-06T02:35:39;41.42;;;27.02;;
68225;SDS011;55045;49.410;11.030;2023-05-06T02:38:48;39.95;;;26.73;;
68225;SDS011;55045;49.410;11.030;2023-05-06T02:45:29;34.45;;;23.20;;
68225;SDS011;55045;49.410;11.030;2023-05-06T02:48:59;41.25;;;27.25;;
68225;SDS011;55045;49.410;11.030;2023-05-06T02:52:20;32.38;;;23.95;;
68225;SDS011;55045;49.410;11.030;2023-05-06T02:55:23;31.77;;;23.08;;
68225;SDS011;55045;49.410;11.030;2023-05-06T02:58:32;28.23;;;20.35;;
68225;SDS011;55045;49.410;11.030;2023-05-06T03:01:54;25.48;;;20.73;;
68225;SDS011;55045;49.410;11.030;2023-05-06T03:05:05;23.38;;;18.77;;
68225;SDS011;55045;49.410;11.030;2023-05-06T03:08:22;24.50;;;19.35;;
68225;SDS011;55045;49.410;11.030;2023-05-06T03:11:44;36.28;;;27.38;;
68225;SDS011;55045;49.410;11.030;2023-05-06T03:15:00;31.15;;;23.50;;
68225;SDS011;55045;49.410;11.030;2023-05-06T03:18:24;36.50;;;26.73;;
68225;SDS011;55045;49.410;11.030;2023-05-06T03:25:27;38.70;;;28.20;;
68225;SDS011;55045;49.410;11.030;2023-05-06T03:28:34;35.20;;;27.13;;
68225;SDS011;55045;49.410;11.030;2023-05-06T03:34:51;41.92;;;29.42;;
68225;SDS011;55045;49.410;11.030;2023-05-06T03:38:09;41.88;;;29.90;;
68225;SDS011;55045;49.410;11.030;2023-05-06T03:45:53;32.40;;;24.20;;
68225;SDS011;55045;49.410;11.030;2023-05-06T03:48:59;38.65;;;28.20;;
68225;SDS011;55045;49.410;11.030;2023-05-06T03:56:10;35.55;;;27.30;;
68225;SDS011;55045;49.410;11.030;2023-05-06T03:59:29;36.00;;;26.23;;
68225;SDS011;55045;49.410;11.030;2023-05-06T04:02:34;46.15;;;27.42;;
68225;SDS011;55045;49.410;11.030;2023-05-06T04:06:55;42.53;;;27.48;;
68225;SDS011;55045;49.410;11.030;2023-05-06T04:13:59;32.28;;;21.67;;
68225;SDS011;55045;49.410;11.030;2023-05-06T04:17:09;38.60;;;24.60;;
68225;SDS011;55045;49.410;11.030;2023-05-06T04:24:18;41.10;;;26.33;;
68225;SDS011;55045;49.410;11.030;2023-05-06T04:27:29;37.50;;;25.90;;
68225;SDS011;55045;49.410;11.030;2023-05-06T04:30:45;44.67;;;26.92;;
68225;SDS011;55045;49.410;11.030;2023-05-06T04:34:01;39.43;;;26.43;;
68225;SDS011;55045;49.410;11.030;2023-05-06T04:37:09;35.38;;;24.80;;
68225;SDS011;55045;49.410;11.030;2023-05-06T04:40:50;39.63;;;26.08;;
68225;SDS011;55045;49.410;11.030;2023-05-06T04:47:49;38.50;;;26.30;;
68225;SDS011;55045;49.410;11.030;2023-05-06T04:51:40;28.52;;;19.90;;
68225;SDS011;55045;49.410;11.030;2023-05-06T04:54:47;33.35;;;23.38;;
68225;SDS011;55045;49.410;11.030;2023-05-06T04:57:50;39.60;;;25.50;;
68225;SDS011;55045;49.410;11.030;2023-05-06T05:01:07;32.35;;;23.80;;
68225;SDS011;55045;49.410;11.030;2023-05-06T05:04:54;38.67;;;25.45;;
68225;SDS011;55045;49.410;11.030;2023-05-06T05:08:06;35.83;;;25.40;;
68225;SDS011;55045;49.410;11.030;2023-05-06T05:11:13;38.55;;;24.30;;
68225;SDS011;55045;49.410;11.030;2023-05-06T05:14:23;36.75;;;23.58;;
68225;SDS011;55045;49.410;11.030;2023-05-06T05:17:33;35.35;;;25.15;;
68225;SDS011;55045;49.410;11.030;2023-05-06T05:20:43;39.70;;;24.77;;
68225;SDS011;55045;49.410;11.030;2023-05-06T05:23:54;32.70;;;21.60;;
68225;SDS011;55045;49.410;11.030;2023-05-06T05:28:05;33.28;;;23.02;;
68225;SDS011;55045;49.410;11.030;2023-05-06T05:35:33;29.27;;;19.77;;
68225;SDS011;55045;49.410;11.030;2023-05-06T05:39:11;28.25;;;20.30;;
68225;SDS011;55045;49.410;11.030;2023-05-06T05:42:50;33.15;;;23.42;;
68225;SDS011;55045;49.410;11.030;2023-05-06T05:52:16;26.48;;;19.45;;
68225;SDS011;55045;49.410;11.030;2023-05-06T05:55:20;28.88;;;20.65;;
68225;SDS011;55045;49.410;11.030;2023-05-06T05:58:24;25.17;;;19.95;;
68225;SDS011;55045;49.410;11.030;2023-05-06T06:01:30;24.85;;;18.85;;
68225;SDS011;55045;49.410;11.030;2023-05-06T06:04:34;22.92;;;16.98;;
68225;SDS011;55045;49.410;11.030;2023-05-06T06:07:39;18.20;;;12.70;;
68225;SDS011;55045;49.410;11.030;2023-05-06T06:10:42;15.48;;;12.88;;
68225;SDS011;55045;49.410;11.030;2023-05-06T06:13:51;17.77;;;13.88;;
68225;SDS011;55045;49.410;11.030;2023-05-06T06:16:55;18.77;;;14.30;;
68225;SDS011;55045;49.410;11.030;2023-05-06T06:19:59;20.48;;;13.90;;
68225;SDS011;55045;49.410;11.030;2023-05-06T06:23:04;20.58;;;14.73;;
68225;SDS011;55045;49.410;11.030;2023-05-06T06:26:08;17.75;;;13.38;;
68225;SDS011;55045;49.410;11.030;2023-05-06T06:29:13;16.63;;;13.25;;
68225;SDS011;55045;49.410;11.030;2023-05-06T06:32:16;17.08;;;13.40;;
68225;SDS011;55045;49.410;11.030;2023-05-06T06:35:20;17.92;;;12.20;;
68225;SDS011;55045;49.410;11.030;2023-05-06T06:38:26;18.58;;;11.60;;
68225;SDS011;55045;49.410;11.030;2023-05-06T06:41:29;16.55;;;11.07;;
68225;SDS011;55045;49.410;11.030;2023-05-06T06:44:32;13.30;;;9.63;;
68225;SDS011;55045;49.410;11.030;2023-05-06T06:47:36;12.40;;;9.82;;
68225;SDS011;55045;49.410;11.030;2023-05-06T06:50:39;13.50;;;10.32;;
68225;SDS011;55045;49.410;11.030;2023-05-06T06:53:44;12.48;;;9.00;;
68225;SDS011;55045;49.410;11.030;2023-05-06T06:56:49;14.35;;;9.65;;
68225;SDS011;55045;49.410;11.030;2023-05-06T06:59:55;13.80;;;9.13;;
68225;SDS011;55045;49.410;11.030;2023-05-06T07:02:59;14.32;;;9.40;;
68225;SDS011;55045;49.410;11.030;2023-05-06T07:06:02;12.27;;;9.23;;
68225;SDS011;55045;49.410;11.030;2023-05-06T07:09:07;11.18;;;9.18;;
68225;SDS011;55045;49.410;11.030;2023-05-06T07:12:10;11.93;;;9.05;;
68225;SDS011;55045;49.410;11.030;2023-05-06T07:15:13;11.30;;;8.48;;
68225;SDS011;55045;49.410;11.030;2023-05-06T07:18:16;10.90;;;8.40;;
68225;SDS011;55045;49.410;11.030;2023-05-06T07:21:20;10.90;;;8.07;;
68225;SDS011;55045;49.410;11.030;2023-05-06T07:24:25;10.88;;;8.68;;
68225;SDS011;55045;49.410;11.030;2023-05-06T07:27:29;11.10;;;7.90;;
68225;SDS011;55045;49.410;11.030;2023-05-06T07:30:32;12.07;;;8.10;;
68225;SDS011;55045;49.410;11.030;2023-05-06T07:33:35;11.32;;;7.97;;
68225;SDS011;55045;49.410;11.030;2023-05-06T07:36:38;12.02;;;8.20;;
68225;SDS011;55045;49.410;11.030;2023-05-06T07:39:45;10.40;;;8.00;;
68225;SDS011;55045;49.410;11.030;2023-05-06T07:42:48;10.82;;;8.10;;
68225;SDS011;55045;49.410;11.030;2023-05-06T07:45:51;11.77;;;8.23;;
68225;SDS011;55045;49.410;11.030;2023-05-06T07:49:02;9.52;;;7.75;;
68225;SDS011;55045;49.410;11.030;2023-05-06T07:52:06;10.60;;;8.15;;
68225;SDS011;55045;49.410;11.030;2023-05-06T07:55:10;10.35;;;8.18;;
68225;SDS011;55045;49.410;11.030;2023-05-06T07:58:14;10.68;;;8.98;;
68225;SDS011;55045;49.410;11.030;2023-05-06T08:01:17;10.80;;;8.30;;
68225;SDS011;55045;49.410;11.030;2023-05-06T08:04:20;9.65;;;7.45;;
68225;SDS011;55045;49.410;11.030;2023-05-06T08:07:24;11.27;;;7.53;;
68225;SDS011;55045;49.410;11.030;2023-05-06T08:10:28;11.13;;;8.60;;
68225;SDS011;55045;49.410;11.030;2023-05-06T08:13:31;11.90;;;8.90;;
68225;SDS011;55045;49.410;11.030;2023-05-06T08:16:35;8.25;;;7.40;;
68225;SDS011;55045;49.410;11.030;2023-05-06T08:19:38;10.02;;;7.55;;
68225;SDS011;55045;49.410;11.030;2023-05-06T08:22:41;13.00;;;7.85;;
68225;SDS011;55045;49.410;11.030;2023-05-06T08:25:46;13.50;;;7.88;;
68225;SDS011;55045;49.410;11.030;2023-05-06T08:28:49;9.85;;;7.25;;
68225;SDS011;55045;49.410;11.030;2023-05-06T08:31:52;8.68;;;7.20;;
68225;SDS011;55045;49.410;11.030;2023-05-06T08:34:55;9.93;;;7.03;;
68225;SDS011;55045;49.410;11.030;2023-05-06T08:38:00;10.07;;;8.02;;
68225;SDS011;55045;49.410;11.030;2023-05-06T08:41:06;11.32;;;7.05;;
68225;SDS011;55045;49.410;11.030;2023-05-06T08:44:11;9.07;;;7.05;;
68225;SDS011;55045;49.410;11.030;2023-05-06T08:47:17;7.13;;;6.43;;
68225;SDS011;55045;49.410;11.030;2023-05-06T08:50:21;11.48;;;7.53;;
68225;SDS011;55045;49.410;11.030;2023-05-06T08:53:26;9.55;;;6.47;;
68225;SDS011;55045;49.410;11.030;2023-05-06T08:56:32;12.10;;;7.90;;
68225;SDS011;55045;49.410;11.030;2023-05-06T08:59:37;8.82;;;6.22;;
68225;SDS011;55045;49.410;11.030;2023-05-06T09:02:43;6.93;;;6.22;;
68225;SDS011;55045;49.410;11.030;2023-05-06T09:05:46;10.00;;;6.82;;
68225;SDS011;55045;49.410;11.030;2023-05-06T09:08:50;8.15;;;6.40;;
68225;SDS011;55045;49.410;11.030;2023-05-06T09:11:54;6.03;;;5.30;;
68225;SDS011;55045;49.410;11.030;2023-05-06T09:14:58;8.25;;;4.55;;
68225;SDS011;55045;49.410;11.030;2023-05-06T09:18:02;7.78;;;6.22;;
68225;SDS011;55045;49.410;11.030;2023-05-06T09:21:06;6.15;;;5.13;;
68225;SDS011;55045;49.410;11.030;2023-05-06T09:24:10;6.20;;;4.80;;
68225;SDS011;55045;49.410;11.030;2023-05-06T09:27:15;5.97;;;5.00;;
68225;SDS011;55045;49.410;11.030;2023-05-06T09:30:20;4.35;;;3.95;;
68225;SDS011;55045;49.410;11.030;2023-05-06T09:34:43;5.57;;;4.97;;
68225;SDS011;55045;49.410;11.030;2023-05-06T09:37:47;5.30;;;4.00;;
68225;SDS011;55045;49.410;11.030;2023-05-06T09:40:50;4.68;;;4.28;;
68225;SDS011;55045;49.410;11.030;2023-05-06T09:43:54;5.65;;;3.72;;
68225;SDS011;55045;49.410;11.030;2023-05-06T09:46:58;4.70;;;3.50;;
68225;SDS011;55045;49.410;11.030;2023-05-06T09:50:09;6.28;;;3.72;;
68225;SDS011;55045;49.410;11.030;2023-05-06T09:53:15;4.32;;;3.75;;
68225;SDS011;55045;49.410;11.030;2023-05-06T09:56:20;4.90;;;3.30;;
68225;SDS011;55045;49.410;11.030;2023-05-06T09:59:25;4.82;;;3.30;;
68225;SDS011;55045;49.410;11.030;2023-05-06T10:02:30;4.97;;;2.75;;
68225;SDS011;55045;49.410;11.030;2023-05-06T10:05:40;5.40;;;2.88;;
68225;SDS011;55045;49.410;11.030;2023-05-06T10:08:43;3.75;;;2.65;;
68225;SDS011;55045;49.410;11.030;2023-05-06T10:11:47;4.63;;;3.15;;
68225;SDS011;55045;49.410;11.030;2023-05-06T10:14:52;6.72;;;2.67;;
68225;SDS011;55045;49.410;11.030;2023-05-06T10:17:55;3.58;;;2.67;;
68225;SDS011;55045;49.410;11.030;2023-05-06T10:21:03;3.70;;;2.50;;
68225;SDS011;55045;49.410;11.030;2023-05-06T10:24:12;2.75;;;2.50;;
68225;SDS011;55045;49.410;11.030;2023-05-06T10:27:21;5.70;;;2.22;;
68225;SDS011;55045;49.410;11.030;2023-05-06T10:30:27;2.47;;;2.28;;
68225;SDS011;55045;49.410;11.030;2023-05-06T10:33:32;2.50;;;2.28;;
68225;SDS011;55045;49.410;11.030;2023-05-06T10:36:37;2.17;;;1.90;;
68225;SDS011;55045;49.410;11.030;2023-05-06T10:39:42;1.67;;;1.57;;
68225;SDS011;55045;49.410;11.030;2023-05-06T10:42:46;1.77;;;1.67;;
68225;SDS011;55045;49.410;11.030;2023-05-06T10:46:02;2.80;;;1.90;;
68225;SDS011;55045;49.410;11.030;2023-05-06T10:52:21;1.70;;;1.60;;
68225;SDS011;55045;49.410;11.030;2023-05-06T10:55:25;2.25;;;1.67;;
68225;SDS011;55045;49.410;11.030;2023-05-06T10:58:30;2.58;;;1.88;;
68225;SDS011;55045;49.410;11.030;2023-05-06T11:04:42;2.17;;;1.95;;
68225;SDS011;55045;49.410;11.030;2023-05-06T11:07:55;2.85;;;1.88;;
68225;SDS011;55045;49.410;11.030;2023-05-06T11:14:52;3.42;;;2.13;;
68225;SDS011;55045;49.410;11.030;2023-05-06T11:17:55;2.13;;;1.58;;
68225;SDS011;55045;49.410;11.030;2023-05-06T11:24:38;2.03;;;1.83;;
68225;SDS011;55045;49.410;11.030;2023-05-06T11:27:43;2.17;;;1.70;;
68225;SDS011;55045;49.410;11.030;2023-05-06T11:30:52;2.47;;;1.60;;
68225;SDS011;55045;49.410;11.030;2023-05-06T11:33:57;2.65;;;1.60;;
68225;SDS011;55045;49.410;11.030;2023-05-06T11:37:05;3.60;;;1.60;;
68225;SDS011;55045;49.410;11.030;2023-05-06T11:40:14;2.15;;;1.80;;
68225;SDS011;55045;49.410;11.030;2023-05-06T11:43:18;2.88;;;1.90;;
68225;SDS011;55045;49.410;11.030;2023-05-06T11:46:21;14.40;;;2.20;;
68225;SDS011;55045;49.410;11.030;2023-05-06T11:49:26;8.18;;;1.90;;
68225;SDS011;55045;49.410;11.030;2023-05-06T11:52:29;8.75;;;2.20;;
68225;SDS011;55045;49.410;11.030;2023-05-06T11:55:34;4.03;;;1.63;;
68225;SDS011;55045;49.410;11.030;2023-05-06T11:58:37;2.45;;;1.40;;
68225;SDS011;55045;49.410;11.030;2023-05-06T12:01:41;2.80;;;1.40;;
68225;SDS011;55045;49.410;11.030;2023-05-06T12:04:46;1.75;;;1.55;;
68225;SDS011;55045;49.410;11.030;2023-05-06T12:07:51;5.15;;;1.67;;
68225;SDS011;55045;49.410;11.030;2023-05-06T12:10:56;5.38;;;1.50;;
68225;SDS011;55045;49.410;11.030;2023-05-06T12:14:01;2.05;;;1.65;;
68225;SDS011;55045;49.410;11.030;2023-05-06T12:17:07;1.60;;;1.40;;
68225;SDS011;55045;49.410;11.030;2023-05-06T12:20:11;1.60;;;1.40;;
68225;SDS011;55045;49.410;11.030;2023-05-06T12:23:14;2.40;;;1.60;;
68225;SDS011;55045;49.410;11.030;2023-05-06T12:26:19;3.25;;;1.50;;
68225;SDS011;55045;49.410;11.030;2023-05-06T12:29:23;2.78;;;1.13;;
68225;SDS011;55045;49.410;11.030;2023-05-06T12:32:26;1.50;;;1.30;;
68225;SDS011;55045;49.410;11.030;2023-05-06T12:35:30;1.50;;;1.40;;
68225;SDS011;55045;49.410;11.030;2023-05-06T12:38:34;1.70;;;1.50;;
68225;SDS011;55045;49.410;11.030;2023-05-06T12:41:39;1.63;;;1.20;;
68225;SDS011;55045;49.410;11.030;2023-05-06T12:44:43;1.30;;;1.20;;
68225;SDS011;55045;49.410;11.030;2023-05-06T12:47:53;1.60;;;1.10;;
68225;SDS011;55045;49.410;11.030;2023-05-06T12:50:56;2.50;;;1.20;;
68225;SDS011;55045;49.410;11.030;2023-05-06T12:54:00;2.78;;;1.08;;
68225;SDS011;55045;49.410;11.030;2023-05-06T12:57:06;7.10;;;1.58;;
68225;SDS011;55045;49.410;11.030;2023-05-06T13:00:10;2.50;;;1.15;;
68225;SDS011;55045;49.410;11.030;2023-05-06T13:03:14;3.28;;;0.90;;
68225;SDS011;55045;49.410;11.030;2023-05-06T13:06:17;1.55;;;0.93;;
68225;SDS011;55045;49.410;11.030;2023-05-06T13:09:21;2.10;;;1.27;;
68225;SDS011;55045;49.410;11.030;2023-05-06T13:12:31;1.25;;;1.15;;
68225;SDS011;55045;49.410;11.030;2023-05-06T13:16:54;3.30;;;1.00;;
68225;SDS011;55045;49.410;11.030;2023-05-06T13:20:15;1.35;;;1.10;;
68225;SDS011;55045;49.410;11.030;2023-05-06T13:23:33;1.05;;;1.00;;
68225;SDS011;55045;49.410;11.030;2023-05-06T13:34:29;2.97;;;1.92;;
68225;SDS011;55045;49.410;11.030;2023-05-06T13:47:24;2.13;;;1.20;;
68225;SDS011;55045;49.410;11.030;2023-05-06T13:50:27;2.05;;;1.52;;
68225;SDS011;55045;49.410;11.030;2023-05-06T13:53:31;2.95;;;1.52;;
68225;SDS011;55045;49.410;11.030;2023-05-06T13:56:34;1.25;;;1.15;;
68225;SDS011;55045;49.410;11.030;2023-05-06T13:59:37;1.83;;;1.25;;
68225;SDS011;55045;49.410;11.030;2023-05-06T14:02:42;1.10;;;1.00;;
68225;SDS011;55045;49.410;11.030;2023-05-06T14:05:45;1.30;;;1.20;;
68225;SDS011;55045;49.410;11.030;2023-05-06T14:08:49;1.02;;;1.02;;
68225;SDS011;55045;49.410;11.030;2023-05-06T14:11:55;1.25;;;0.98;;
68225;SDS011;55045;49.410;11.030;2023-05-06T14:15:01;2.08;;;1.10;;
68225;SDS011;55045;49.410;11.030;2023-05-06T14:29:31;4.50;;;1.00;;
68225;SDS011;55045;49.410;11.030;2023-05-06T14:32:55;2.65;;;0.90;;
68225;SDS011;55045;49.410;11.030;2023-05-06T14:36:40;3.20;;;0.98;;
68225;SDS011;55045;49.410;11.030;2023-05-06T14:39:53;3.10;;;1.00;;
68225;SDS011;55045;49.410;11.030;2023-05-06T14:43:02;2.50;;;1.25;;
68225;SDS011;55045;49.410;11.030;2023-05-06T14:46:23;1.60;;;1.10;;
68225;SDS011;55045;49.410;11.030;2023-05-06T14:49:36;1.45;;;1.10;;
68225;SDS011;55045;49.410;11.030;2023-05-06T15:01:54;2.53;;;1.20;;
68225;SDS011;55045;49.410;11.030;2023-05-06T15:12:29;3.37;;;0.97;;
68225;SDS011;55045;49.410;11.030;2023-05-06T15:15:55;1.15;;;1.05;;
68225;SDS011;55045;49.410;11.030;2023-05-06T15:19:05;1.65;;;1.00;;
68225;SDS011;55045;49.410;11.030;2023-05-06T15:22:20;1.23;;;1.13;;
68225;SDS011;55045;49.410;11.030;2023-05-06T15:39:34;1.10;;;1.10;;
68225;SDS011;55045;49.410;11.030;2023-05-06T15:47:27;0.93;;;0.93;;
68225;SDS011;55045;49.410;11.030;2023-05-06T15:50:31;1.23;;;0.88;;
68225;SDS011;55045;49.410;11.030;2023-05-06T15:53:38;1.13;;;0.98;;
68225;SDS011;55045;49.410;11.030;2023-05-06T15:56:52;2.25;;;0.82;;
68225;SDS011;55045;49.410;11.030;2023-05-06T16:00:16;3.03;;;0.80;;
68225;SDS011;55045;49.410;11.030;2023-05-06T16:03:19;0.95;;;0.93;;
68225;SDS011;55045;49.410;11.030;2023-05-06T16:07:06;1.10;;;1.00;;
68225;SDS011;55045;49.410;11.030;2023-05-06T16:10:55;1.30;;;1.20;;
68225;SDS011;55045;49.410;11.030;2023-05-06T16:14:34;1.75;;;1.00;;
68225;SDS011;55045;49.410;11.030;2023-05-06T16:18:23;1.45;;;1.20;;
68225;SDS011;55045;49.410;11.030;2023-05-06T16:22:10;1.85;;;1.02;;
68225;SDS011;55045;49.410;11.030;2023-05-06T16:25:44;1.33;;;0.90;;
68225;SDS011;55045;49.410;11.030;2023-05-06T16:29:02;3.20;;;1.15;;
68225;SDS011;55045;49.410;11.030;2023-05-06T16:32:13;3.67;;;1.20;;
68225;SDS011;55045;49.410;11.030;2023-05-06T16:36:06;1.73;;;1.20;;
68225;SDS011;55045;49.410;11.030;2023-05-06T16:43:03;1.58;;;1.10;;
68225;SDS011;55045;49.410;11.030;2023-05-06T16:46:06;1.98;;;1.20;;
68225;SDS011;55045;49.410;11.030;2023-05-06T16:49:23;4.15;;;1.40;;
68225;SDS011;55045;49.410;11.030;2023-05-06T16:53:54;1.95;;;1.13;;
68225;SDS011;55045;49.410;11.030;2023-05-06T16:57:33;2.90;;;1.30;;
68225;SDS011;55045;49.410;11.030;2023-05-06T17:13:44;2.45;;;1.08;;
68225;SDS011;55045;49.410;11.030;2023-05-06T17:17:07;1.17;;;1.08;;
68225;SDS011;55045;49.410;11.030;2023-05-06T17:25:10;3.22;;;1.30;;
68225;SDS011;55045;49.410;11.030;2023-05-06T17:28:17;3.60;;;1.30;;
68225;SDS011;55045;49.410;11.030;2023-05-06T17:31:41;2.38;;;1.40;;
68225;SDS011;55045;49.410;11.030;2023-05-06T17:34:59;1.83;;;1.17;;
68225;SDS011;55045;49.410;11.030;2023-05-06T17:38:10;2.15;;;1.20;;
68225;SDS011;55045;49.410;11.030;2023-05-06T17:41:20;3.15;;;1.35;;
68225;SDS011;55045;49.410;11.030;2023-05-06T17:44:50;2.55;;;1.48;;
68225;SDS011;55045;49.410;11.030;2023-05-06T17:47:57;4.70;;;1.05;;
68225;SDS011;55045;49.410;11.030;2023-05-06T17:51:39;5.43;;;1.23;;
68225;SDS011;55045;49.410;11.030;2023-05-06T17:59:53;2.10;;;1.20;;
68225;SDS011;55045;49.410;11.030;2023-05-06T18:03:23;1.33;;;1.23;;
68225;SDS011;55045;49.410;11.030;2023-05-06T18:10:19;1.75;;;1.20;;
68225;SDS011;55045;49.410;11.030;2023-05-06T18:13:33;1.70;;;1.38;;
68225;SDS011;55045;49.410;11.030;2023-05-06T18:19:02;4.32;;;1.60;;
68225;SDS011;55045;49.410;11.030;2023-05-06T18:21:24;2.22;;;1.70;;
68225;SDS011;55045;49.410;11.030;2023-05-06T18:24:47;2.28;;;1.50;;
68225;SDS011;55045;49.410;11.030;2023-05-06T18:28:28;1.95;;;1.40;;
68225;SDS011;55045;49.410;11.030;2023-05-06T18:33:13;2.00;;;1.50;;
68225;SDS011;55045;49.410;11.030;2023-05-06T18:40:54;3.15;;;1.80;;
68225;SDS011;55045;49.410;11.030;2023-05-06T18:52:59;6.05;;;1.80;;
68225;SDS011;55045;49.410;11.030;2023-05-06T18:56:33;10.85;;;4.30;;
68225;SDS011;55045;49.410;11.030;2023-05-06T19:00:08;5.80;;;3.10;;
68225;SDS011;55045;49.410;11.030;2023-05-06T19:03:32;5.70;;;3.15;;
68225;SDS011;55045;49.410;11.030;2023-05-06T19:07:36;4.40;;;2.10;;
68225;SDS011;55045;49.410;11.030;2023-05-06T19:15:51;8.75;;;4.55;;
68225;SDS011;55045;49.410;11.030;2023-05-06T19:19:12;5.03;;;3.42;;
68225;SDS011;55045;49.410;11.030;2023-05-06T19:23:07;3.80;;;2.90;;
68225;SDS011;55045;49.410;11.030;2023-05-06T19:26:27;3.45;;;2.80;;
68225;SDS011;55045;49.410;11.030;2023-05-06T19:29:37;4.07;;;2.30;;
68225;SDS011;55045;49.410;11.030;2023-05-06T19:32:58;3.65;;;2.65;;
68225;SDS011;55045;49.410;11.030;2023-05-06T19:36:52;4.15;;;2.75;;
68225;SDS011;55045;49.410;11.030;2023-05-06T19:43:58;4.00;;;2.65;;
68225;SDS011;55045;49.410;11.030;2023-05-06T19:47:07;4.22;;;3.15;;
68225;SDS011;55045;49.410;11.030;2023-05-06T19:50:15;7.05;;;3.20;;
68225;SDS011;55045;49.410;11.030;2023-05-06T19:53:59;5.85;;;4.20;;
68225;SDS011;55045;49.410;11.030;2023-05-06T19:58:19;5.97;;;5.10;;
68225;SDS011;55045;49.410;11.030;2023-05-06T20:01:43;6.03;;;5.10;;
68225;SDS011;55045;49.410;11.030;2023-05-06T20:04:47;6.82;;;5.22;;
68225;SDS011;55045;49.410;11.030;2023-05-06T20:08:04;5.60;;;4.97;;
68225;SDS011;55045;49.410;11.030;2023-05-06T20:11:32;10.93;;;6.00;;
68225;SDS011;55045;49.410;11.030;2023-05-06T20:14:52;7.93;;;6.50;;
68225;SDS011;55045;49.410;11.030;2023-05-06T20:17:55;8.75;;;5.90;;
68225;SDS011;55045;49.410;11.030;2023-05-06T20:21:22;9.35;;;5.60;;
68225;SDS011;55045;49.410;11.030;2023-05-06T20:25:17;7.63;;;5.32;;
68225;SDS011;55045;49.410;11.030;2023-05-06T20:28:50;6.60;;;4.90;;
68225;SDS011;55045;49.410;11.030;2023-05-06T20:36:09;9.38;;;4.75;;
68225;SDS011;55045;49.410;11.030;2023-05-06T20:48:19;6.50;;;5.15;;
68225;SDS011;55045;49.410;11.030;2023-05-06T20:52:04;8.75;;;5.80;;
68225;SDS011;55045;49.410;11.030;2023-05-06T21:07:16;16.02;;;12.38;;
68225;SDS011;55045;49.410;11.030;2023-05-06T21:10:19;16.02;;;13.05;;
68225;SDS011;55045;49.410;11.030;2023-05-06T21:13:22;14.88;;;12.52;;
68225;SDS011;55045;49.410;11.030;2023-05-06T21:25:07;13.80;;;10.27;;
68225;SDS011;55045;49.410;11.030;2023-05-06T21:29:20;14.38;;;10.00;;
68225;SDS011;55045;49.410;11.030;2023-05-06T21:38:36;11.43;;;9.63;;
68225;SDS011;55045;49.410;11.030;2023-05-06T21:42:25;12.43;;;10.33;;
68225;SDS011;55045;49.410;11.030;2023-05-06T21:45:34;12.30;;;10.93;;
68225;SDS011;55045;49.410;11.030;2023-05-06T21:48:52;12.98;;;10.40;;
68225;SDS011;55045;49.410;11.030;2023-05-06T21:52:01;11.80;;;9.90;;
68225;SDS011;55045;49.410;11.030;2023-05-06T21:59:22;10.52;;;8.77;;
68225;SDS011;55045;49.410;11.030;2023-05-06T22:02:25;10.68;;;8.15;;
68225;SDS011;55045;49.410;11.030;2023-05-06T22:05:45;10.63;;;6.63;;
68225;SDS011;55045;49.410;11.030;2023-05-06T22:09:07;6.28;;;5.28;;
68225;SDS011;55045;49.410;11.030;2023-05-06T22:12:20;6.82;;;5.35;;
68225;SDS011;55045;49.410;11.030;2023-05-06T22:15:55;10.98;;;7.82;;
68225;SDS011;55045;49.410;11.030;2023-05-06T22:23:07;10.13;;;7.00;;
68225;SDS011;55045;49.410;11.030;2023-05-06T22:26:30;7.70;;;6.72;;
68225;SDS011;55045;49.410;11.030;2023-05-06T22:30:48;7.45;;;6.22;;
68225;SDS011;55045;49.410;11.030;2023-05-06T22:34:06;7.65;;;6.38;;
68225;SDS011;55045;49.410;11.030;2023-05-06T22:48:36;8.48;;;6.50;;
68225;SDS011;55045;49.410;11.030;2023-05-06T22:59:04;6.28;;;5.68;;
68225;SDS011;55045;49.410;11.030;2023-05-06T23:06:52;7.82;;;6.95;;
68225;SDS011;55045;49.410;11.030;2023-05-06T23:10:16;10.73;;;9.13;;
68225;SDS011;55045;49.410;11.030;2023-05-06T23:13:22;10.07;;;8.88;;
68225;SDS011;55045;49.410;11.030;2023-05-06T23:16:25;14.10;;;9.75;;
68225;SDS011;55045;49.410;11.030;2023-05-06T23:20:44;10.63;;;9.45;;
68225;SDS011;55045;49.410;11.030;2023-05-06T23:24:12;12.60;;;9.65;;
68225;SDS011;55045;49.410;11.030;2023-05-06T23:27:33;10.93;;;9.32;;
68225;SDS011;55045;49.410;11.030;2023-05-06T23:32:04;11.90;;;9.90;;
68225;SDS011;55045;49.410;11.030;2023-05-06T23:35:37;10.80;;;8.45;;
68225;SDS011;55045;49.410;11.030;2023-05-06T23:44:01;9.23;;;6.18;;
68225;SDS011;55045;49.410;11.030;2023-05-06T23:48:26;7.22;;;6.45;;
68225;SDS011;55045;49.410;11.030;2023-05-06T23:51:41;9.90;;;6.57;;
68225;SDS011;55045;49.410;11.030;2023-05-06T23:55:44;9.07;;;6.70;;
68225;SDS011;55045;49.410;11.030;2023-05-06T23:59:04;7.32;;;6.38;;
